Jasper, Illinois
Current Conditions -  °F | °C
As of 4:55 PM on Wednesday 26 Nov 2014 (Local Time) from KFWC Reporting Station
Light Snow Light Snow  
Wind Chill: 34°   Ceiling: 1400
Heat Index: 34°   Visibility: 2.5mi
Dew Point: 32°   Wind: 0mph
Humidity: 93%   Direction: NA
Pressure: 30.04"   Gusts: NA
Location:  38.3669°N, 88.3516°W
Report Text: KFWC 262255Z AUTO 00000KT 2 1/2SM -SN SCT009 BKN014 OVC021 01/00 A3004 RMK AO1 T00100000
Loading
Personal Weather Stations






























Interactive Weather Map New forecast layout! Learn more

10-Day Weather Forecast

Advertisements
Track Severe Weather on mobile